Time;durP1;ratioP1;P1;durP2;ratioP2;P2;SDS_P1;SDS_P2;PMS_P1;PMS_P2;Temp;Humidity;BMP_temperature;BMP_pressure;BME280_temperature;BME280_humidity;BME280_pressure;Samples;Min_cycle;Max_cycle;Signal;HPM_P1;HPM_P2
2022/05/12 00:00:41;;;;;;;7.88;3.00;;;;;;;11.82;63.53;99655.78;5097431;28;20469;-85
2022/05/12 00:03:07;;;;;;;5.93;3.17;;;;;;;11.78;64.12;99650.03;5098694;27;20546;-84
2022/05/12 00:05:33;;;;;;;8.35;3.20;;;;;;;11.72;63.90;99646.59;5099394;28;20122;-85
2022/05/12 00:07:59;;;;;;;7.38;3.25;;;;;;;11.70;63.93;99648.06;5096859;28;20046;-84
2022/05/12 00:10:25;;;;;;;5.85;2.95;;;;;;;11.65;64.85;99640.75;5098078;28;20481;-84
2022/05/12 00:12:52;;;;;;;6.07;3.45;;;;;;;11.62;64.41;99635.03;5105481;27;20036;-84
2022/05/12 00:15:27;;;;;;;8.68;2.88;;;;;;;11.58;64.28;99634.88;5104137;28;20093;-85
2022/05/12 00:17:53;;;;;;;6.22;3.13;;;;;;;11.46;64.89;99629.13;5087322;28;20481;-85
2022/05/12 00:20:21;;;;;;;4.65;2.75;;;;;;;11.48;65.53;99621.41;5113169;28;20119;-85
2022/05/12 00:22:47;;;;;;;7.45;3.05;;;;;;;11.57;64.64;99622.25;5105738;28;20059;-85
2022/05/12 00:25:16;;;;;;;5.05;2.78;;;;;;;11.70;64.61;99621.38;5098596;28;20090;-84
2022/05/12 00:27:42;;;;;;;4.55;2.55;;;;;;;11.69;64.21;99613.44;5112070;28;20047;-85
2022/05/12 00:30:09;;;;;;;5.07;2.72;;;;;;;11.66;64.39;99612.16;5103195;28;20116;-84
2022/05/12 00:32:38;;;;;;;6.53;2.75;;;;;;;11.62;64.17;99602.88;5100195;28;20031;-84
2022/05/12 00:35:06;;;;;;;7.45;3.00;;;;;;;11.54;65.12;99600.91;5099165;28;20036;-84
2022/05/12 00:37:31;;;;;;;4.63;2.67;;;;;;;11.58;64.57;99596.41;5099345;28;20044;-84
2022/05/12 00:39:57;;;;;;;6.63;2.67;;;;;;;11.67;64.28;99596.47;5099618;28;20449;-84
2022/05/12 00:42:22;;;;;;;4.07;2.78;;;;;;;11.66;64.58;99586.59;5107424;28;20035;-82
2022/05/12 00:44:48;;;;;;;5.47;3.00;;;;;;;11.65;64.42;99588.53;5096372;28;20039;-82
2022/05/12 00:47:13;;;;;;;4.72;2.95;;;;;;;11.74;64.08;99591.31;5107795;28;20409;-82
2022/05/12 00:49:40;;;;;;;7.80;3.63;;;;;;;11.80;64.63;99586.53;5105725;28;20050;-83
2022/05/12 00:52:08;;;;;;;5.65;2.72;;;;;;;11.85;64.15;99584.47;5111518;28;20054;-83
2022/05/12 00:54:54;;;;;;;5.10;3.00;;;;;;;11.81;64.31;99577.19;5112972;27;20031;-83
2022/05/12 00:57:34;;;;;;;6.45;2.95;;;;;;;11.78;64.48;99579.41;5104769;28;20039;-83
2022/05/12 01:00:00;;;;;;;7.18;2.85;;;;;;;11.81;64.36;99582.69;5109481;27;20040;-83
2022/05/12 01:02:26;;;;;;;5.38;2.28;;;;;;;11.88;64.08;99577.53;5105582;28;20042;-83
2022/05/12 01:04:55;;;;;;;5.97;2.75;;;;;;;11.91;64.01;99568.66;5084282;28;20038;-82
2022/05/12 01:07:20;;;;;;;6.13;2.58;;;;;;;11.84;64.24;99560.06;5109301;28;20055;-84
2022/05/12 01:09:46;;;;;;;4.65;2.70;;;;;;;11.87;63.93;99551.19;5110296;28;20409;-84
2022/05/12 01:12:12;;;;;;;7.85;2.30;;;;;;;11.89;63.28;99557.97;5101476;28;20040;-83
2022/05/12 01:14:37;;;;;;;5.18;2.67;;;;;;;11.97;63.44;99561.88;5094625;28;20418;-83
2022/05/12 01:17:04;;;;;;;4.32;2.78;;;;;;;12.03;63.09;99555.13;5095749;28;20105;-83
2022/05/12 01:19:32;;;;;;;4.55;2.75;;;;;;;12.05;63.56;99555.63;5105666;28;20043;-84
2022/05/12 01:21:59;;;;;;;3.47;2.40;;;;;;;12.02;63.14;99557.06;5099024;28;20051;-84
2022/05/12 01:24:31;;;;;;;3.15;2.25;;;;;;;11.96;62.61;99547.31;5095399;28;20040;-84
2022/05/12 01:26:58;;;;;;;5.78;2.67;;;;;;;11.94;63.59;99552.34;5107596;28;20139;-85
2022/05/12 01:29:23;;;;;;;3.17;2.28;;;;;;;11.96;63.33;99552.00;5098173;28;20040;-84
2022/05/12 01:31:49;;;;;;;7.75;2.50;;;;;;;11.81;62.74;99557.94;5082382;28;20036;-85
2022/05/12 01:34:15;;;;;;;4.20;2.42;;;;;;;11.79;63.41;99544.50;5098101;28;20089;-85
2022/05/12 01:36:41;;;;;;;5.00;2.60;;;;;;;11.86;63.37;99546.81;5106626;28;20501;-84
2022/05/12 01:39:08;;;;;;;6.38;3.15;;;;;;;11.75;63.42;99547.03;5102438;28;20039;-85
2022/05/12 01:41:34;;;;;;;5.32;3.25;;;;;;;11.59;64.30;99542.25;5096202;28;20036;-84
2022/05/12 01:44:01;;;;;;;4.90;2.80;;;;;;;11.47;64.77;99529.94;5097103;28;20112;-85
2022/05/12 01:46:27;;;;;;;5.65;3.55;;;;;;;11.56;64.88;99540.16;5096643;28;20051;-85
2022/05/12 01:48:53;;;;;;;4.70;3.08;;;;;;;11.54;65.17;99536.91;5092517;28;20147;-86
2022/05/12 01:51:18;;;;;;;5.22;2.97;;;;;;;11.61;64.44;99540.00;5104266;28;20035;-86
2022/05/12 01:53:44;;;;;;;4.63;2.88;;;;;;;11.63;64.40;99535.03;5097421;28;20036;-86
2022/05/12 01:56:10;;;;;;;5.00;2.97;;;;;;;11.54;64.19;99536.91;5106694;28;20450;-86
2022/05/12 01:58:36;;;;;;;5.32;2.63;;;;;;;11.46;64.98;99533.00;5092101;28;20456;-84
2022/05/12 02:01:02;;;;;;;5.43;2.72;;;;;;;11.56;64.24;99521.72;5098773;28;20051;-84
2022/05/12 02:03:28;;;;;;;4.20;2.67;;;;;;;11.66;64.66;99526.97;5105072;27;20036;-84
2022/05/12 02:05:53;;;;;;;3.97;2.55;;;;;;;11.80;64.53;99517.81;5114727;27;20065;-84
2022/05/12 02:08:19;;;;;;;4.00;2.80;;;;;;;11.77;63.61;99519.22;5116955;27;20505;-84
2022/05/12 02:10:49;;;;;;;5.60;2.90;;;;;;;11.76;64.35;99512.13;5105994;27;20276;-84
2022/05/12 02:13:15;;;;;;;7.30;2.42;;;;;;;11.90;64.07;99509.31;5093027;28;20558;-84
2022/05/12 02:15:42;;;;;;;3.72;2.38;;;;;;;11.97;63.15;99496.72;5106805;28;20560;-84
2022/05/12 02:18:08;;;;;;;3.10;2.30;;;;;;;11.97;62.83;99502.22;5105626;28;20063;-84
2022/05/12 02:20:33;;;;;;;3.33;2.42;;;;;;;12.02;62.66;99495.78;5093162;28;20032;-84
2022/05/12 02:22:59;;;;;;;5.15;2.45;;;;;;;12.09;62.45;99479.59;5098894;28;20101;-84
2022/05/12 02:25:24;;;;;;;3.83;2.38;;;;;;;12.06;62.83;99477.50;5093389;28;20061;-85
2022/05/12 02:27:51;;;;;;;3.40;2.25;;;;;;;12.05;62.61;99486.88;5093637;28;20109;-84
2022/05/12 02:30:21;;;;;;;3.97;2.08;;;;;;;12.11;63.00;99488.34;5100229;28;20410;-84
2022/05/12 02:32:47;;;;;;;4.93;2.60;;;;;;;12.04;62.70;99480.56;5093248;28;20042;-85
2022/05/12 02:35:12;;;;;;;5.95;2.42;;;;;;;12.01;63.26;99485.91;5094202;28;20040;-84
2022/05/12 02:37:39;;;;;;;3.13;2.40;;;;;;;12.03;62.33;99473.47;5077798;28;20548;-84
2022/05/12 02:40:06;;;;;;;2.72;2.22;;;;;;;12.08;62.45;99462.31;5094982;28;20035;-84
2022/05/12 02:42:31;;;;;;;5.40;2.40;;;;;;;12.07;62.03;99470.88;5101949;28;20433;-84
2022/05/12 02:44:57;;;;;;;5.95;2.38;;;;;;;11.86;63.16;99465.16;5090610;28;20044;-84
2022/05/12 02:47:23;;;;;;;6.25;2.72;;;;;;;11.82;62.87;99466.94;5098594;28;20417;-83
2022/05/12 02:49:48;;;;;;;2.92;2.47;;;;;;;11.71;63.05;99460.88;5095065;28;20072;-84
2022/05/12 02:52:14;;;;;;;4.07;2.42;;;;;;;11.67;63.10;99461.81;5092882;28;20063;-84
2022/05/12 02:54:40;;;;;;;6.70;2.50;;;;;;;11.68;63.33;99467.00;5089063;28;20036;-84
2022/05/12 02:57:06;;;;;;;5.10;2.67;;;;;;;11.71;63.98;99466.34;5092935;28;20135;-83
2022/05/12 02:59:31;;;;;;;3.67;2.50;;;;;;;11.62;63.17;99471.00;5093282;28;20525;-83
2022/05/12 03:01:58;;;;;;;4.22;2.45;;;;;;;11.61;63.72;99463.88;5097306;28;20039;-82
2022/05/12 03:04:25;;;;;;;3.42;3.00;;;;;;;11.70;63.70;99456.50;5106542;28;20039;-83
2022/05/12 03:06:51;;;;;;;4.15;2.50;;;;;;;11.80;63.31;99455.41;5094694;28;20048;-83
2022/05/12 03:09:18;;;;;;;2.83;2.30;;;;;;;11.87;63.03;99463.22;5093032;28;20036;-83
2022/05/12 03:11:43;;;;;;;3.30;3.00;;;;;;;11.91;63.24;99453.19;5104766;28;20039;-84
2022/05/12 03:14:10;;;;;;;4.85;2.35;;;;;;;11.88;62.53;99457.41;5103285;28;20053;-83
2022/05/12 03:16:36;;;;;;;5.47;2.50;;;;;;;11.96;63.28;99442.84;5105336;28;20039;-83
2022/05/12 03:19:02;;;;;;;5.97;2.42;;;;;;;11.94;62.74;99438.81;5101915;28;20042;-83
2022/05/12 03:21:27;;;;;;;3.38;1.95;;;;;;;11.83;62.54;99441.06;5108217;28;20040;-84
2022/05/12 03:23:53;;;;;;;5.88;2.28;;;;;;;11.75;62.84;99445.34;5093984;28;20482;-84
2022/05/12 03:26:19;;;;;;;6.38;2.38;;;;;;;11.75;62.63;99431.59;5092225;28;20119;-83
2022/05/12 03:28:45;;;;;;;3.65;1.95;;;;;;;11.77;63.07;99429.34;5093791;28;20134;-83
2022/05/12 03:31:11;;;;;;;3.35;2.17;;;;;;;11.74;63.04;99419.00;5089276;28;20132;-84
2022/05/12 03:33:37;;;;;;;3.60;2.00;;;;;;;11.68;63.31;99419.47;5096989;28;20043;-85
2022/05/12 03:36:04;;;;;;;4.30;2.53;;;;;;;11.78;62.30;99428.25;5095475;28;20383;-84
2022/05/12 03:38:30;;;;;;;2.72;1.88;;;;;;;11.81;62.49;99428.78;5099788;28;20036;-84
2022/05/12 03:40:55;;;;;;;6.40;2.42;;;;;;;11.94;62.39;99416.81;5093719;28;20036;-84
2022/05/12 03:46:06;;;;;;;4.25;2.40;;;;;;;12.05;62.28;99424.44;5094978;28;20051;-84
2022/05/12 03:48:34;;;;;;;6.00;2.60;;;;;;;12.08;61.94;99417.50;5108210;27;20043;-85
2022/05/12 03:50:59;;;;;;;9.15;2.47;;;;;;;12.05;62.46;99413.47;5106031;28;20042;-84
2022/05/12 03:53:25;;;;;;;4.10;2.15;;;;;;;11.99;62.64;99411.19;5106337;28;20032;-84
2022/05/12 03:55:51;;;;;;;4.35;2.38;;;;;;;11.87;62.32;99409.06;5081570;28;20101;-83
2022/05/12 03:58:17;;;;;;;6.13;2.65;;;;;;;11.88;63.14;99405.16;5096673;28;20525;-84
2022/05/12 04:00:42;;;;;;;4.80;2.30;;;;;;;11.96;62.29;99406.31;5113476;28;20081;-84
2022/05/12 04:03:08;;;;;;;9.43;2.47;;;;;;;12.00;62.06;99399.06;5096829;28;20062;-84
2022/05/12 04:05:34;;;;;;;4.22;2.47;;;;;;;11.98;62.60;99404.88;5102084;27;20031;-84
2022/05/12 04:08:00;;;;;;;4.45;2.47;;;;;;;11.84;62.45;99387.72;5116074;27;20112;-85
2022/05/12 04:10:26;;;;;;;7.85;2.42;;;;;;;11.73;62.77;99389.91;5111421;28;20114;-84
2022/05/12 04:12:52;;;;;;;4.25;2.45;;;;;;;11.62;63.01;99383.06;5110962;27;20522;-85
2022/05/12 04:15:19;;;;;;;4.07;2.05;;;;;;;11.72;62.88;99388.28;5093277;28;20131;-83
2022/05/12 04:17:54;;;;;;;8.15;2.47;;;;;;;11.90;63.10;99386.41;5102190;28;20417;-83
2022/05/12 04:20:20;;;;;;;3.47;2.50;;;;;;;12.03;62.07;99376.41;5110874;28;20501;-83
2022/05/12 04:22:46;;;;;;;2.72;1.88;;;;;;;12.15;62.21;99376.59;5096526;28;20040;-83
2022/05/12 04:25:11;;;;;;;6.35;2.28;;;;;;;12.31;61.83;99365.91;5099338;28;20409;-84
2022/05/12 04:27:38;;;;;;;2.75;2.00;;;;;;;12.44;61.64;99364.13;5105453;28;20403;-82
2022/05/12 04:30:06;;;;;;;2.95;2.25;;;;;;;12.49;60.78;99361.19;5101216;28;20038;-84
2022/05/12 04:32:31;;;;;;;8.90;2.55;;;;;;;12.56;60.31;99353.28;5100392;28;20122;-84
2022/05/12 04:35:12;;;;;;;6.18;2.50;;;;;;;12.58;60.34;99340.00;5110680;28;20134;-83
2022/05/12 04:37:41;;;;;;;6.13;2.95;;;;;;;12.59;60.13;99341.63;5111482;28;20179;-84
2022/05/12 04:40:14;;;;;;;4.40;2.22;;;;;;;12.66;60.69;99333.66;5111904;28;20103;-83
2022/05/12 04:42:40;;;;;;;3.30;2.10;;;;;;;12.75;60.24;99336.41;5101358;28;20089;-84
2022/05/12 04:45:07;;;;;;;4.90;2.17;;;;;;;12.89;59.30;99337.84;5094941;28;20035;-83
2022/05/12 04:47:34;;;;;;;5.03;2.13;;;;;;;12.99;59.16;99337.47;5094353;28;20612;-83
2022/05/12 04:50:00;;;;;;;3.22;2.30;;;;;;;13.09;59.15;99330.00;5086296;28;20040;-83
2022/05/12 04:52:26;;;;;;;4.63;2.58;;;;;;;13.19;59.20;99335.16;5095811;28;20089;-83
2022/05/12 04:54:54;;;;;;;6.75;2.33;;;;;;;13.33;58.33;99330.22;5100798;28;20070;-84
2022/05/12 04:57:20;;;;;;;7.00;3.03;;;;;;;13.35;57.95;99329.91;5104676;28;20067;-84
2022/05/12 04:59:46;;;;;;;3.72;2.10;;;;;;;13.41;58.37;99323.91;5102608;28;20521;-84
2022/05/12 05:02:12;;;;;;;6.35;2.45;;;;;;;13.45;58.22;99316.56;5099117;28;20048;-84
2022/05/12 05:04:37;;;;;;;3.53;2.40;;;;;;;13.54;57.64;99322.84;5095758;28;20047;-84
2022/05/12 05:07:03;;;;;;;4.35;2.08;;;;;;;13.52;57.94;99316.03;5104005;28;20044;-84
2022/05/12 05:09:29;;;;;;;8.88;2.20;;;;;;;13.43;58.03;99318.84;5110423;28;20046;-84
2022/05/12 05:11:54;;;;;;;7.28;2.58;;;;;;;13.44;57.76;99320.47;5110760;28;20035;-85
2022/05/12 05:14:20;;;;;;;6.30;2.00;;;;;;;13.47;58.01;99308.78;5110847;28;20090;-84
2022/05/12 05:16:46;;;;;;;6.53;2.60;;;;;;;13.45;57.97;99308.31;5096200;28;20028;-83
2022/05/12 05:19:12;;;;;;;3.03;2.20;;;;;;;13.51;57.85;99304.19;5097014;28;20035;-83
2022/05/12 05:21:38;;;;;;;7.85;2.38;;;;;;;13.54;57.77;99292.53;5081521;28;20172;-84
2022/05/12 05:24:03;;;;;;;4.20;2.40;;;;;;;13.53;57.63;99295.59;5103107;28;20074;-84
2022/05/12 05:26:29;;;;;;;5.03;2.38;;;;;;;13.50;57.54;99286.06;5095350;28;20035;-84
2022/05/12 05:28:55;;;;;;;4.20;2.20;;;;;;;13.42;58.64;99281.41;5062844;28;1109958;-83
2022/05/12 05:31:21;;;;;;;5.50;2.47;;;;;;;13.41;58.52;99279.81;5104123;28;20040;-83
2022/05/12 05:33:46;;;;;;;4.15;2.55;;;;;;;13.53;58.40;99285.38;5102484;28;20032;-86
2022/05/12 05:36:12;;;;;;;6.63;3.60;;;;;;;13.55;58.17;99274.88;5097828;28;20044;-87
2022/05/12 05:38:38;;;;;;;5.80;2.53;;;;;;;13.55;58.17;99268.53;5117039;27;20560;-84
2022/05/12 05:41:04;;;;;;;3.78;2.58;;;;;;;13.51;57.76;99265.63;5120611;27;20036;-78
2022/05/12 05:43:29;;;;;;;9.68;3.70;;;;;;;13.46;58.81;99268.59;5112608;28;20036;-77
2022/05/12 05:45:55;;;;;;;4.93;2.42;;;;;;;13.44;58.68;99270.06;5112437;28;20047;-78
2022/05/12 05:48:21;;;;;;;9.88;3.10;;;;;;;13.39;58.65;99276.56;5111997;28;20097;-79
2022/05/12 05:53:35;;;;;;;6.47;4.18;;;;;;;13.34;59.11;99265.72;5115971;27;20051;-84
2022/05/12 05:56:04;;;;;;;8.27;3.25;;;;;;;13.39;59.18;99250.97;5109356;28;20038;-83
2022/05/12 05:58:33;;;;;;;4.70;3.17;;;;;;;13.47;58.71;99255.59;5087252;28;20036;-84
2022/05/12 06:01:04;;;;;;;8.13;3.28;;;;;;;13.54;58.61;99256.72;5108664;28;20832;-86
2022/05/12 06:03:29;;;;;;;6.20;2.95;;;;;;;13.57;58.40;99258.78;5110561;28;20038;-86
2022/05/12 06:05:56;;;;;;;6.47;3.38;;;;;;;13.53;58.24;99255.06;5111756;28;20126;-86
2022/05/12 06:08:22;;;;;;;5.10;3.30;;;;;;;13.53;58.55;99241.28;5112374;28;20091;-87
2022/05/12 06:10:50;;;;;;;6.80;3.80;;;;;;;13.67;58.22;99240.22;5112510;27;20043;-85
2022/05/12 06:13:16;;;;;;;9.80;3.85;;;;;;;13.84;57.85;99254.69;5112211;28;20118;-85
2022/05/12 06:15:42;;;;;;;5.78;2.88;;;;;;;13.84;57.68;99246.41;5093777;28;20046;-86
2022/05/12 06:18:09;;;;;;;7.40;3.63;;;;;;;13.82;57.64;99240.44;5111474;28;20043;-85
2022/05/12 06:20:36;;;;;;;8.82;4.00;;;;;;;13.80;57.86;99236.41;5111898;28;20085;-85
2022/05/12 06:23:02;;;;;;;6.85;3.60;;;;;;;13.88;58.02;99230.00;5112200;28;20039;-85
2022/05/12 06:25:28;;;;;;;5.78;3.85;;;;;;;14.02;57.87;99226.97;5111924;28;20032;-85
2022/05/12 06:27:53;;;;;;;6.38;3.35;;;;;;;14.06;57.79;99222.41;5104256;28;20484;-85
2022/05/12 06:30:19;;;;;;;8.85;3.47;;;;;;;14.11;57.24;99216.66;5103103;28;20493;-85
2022/05/12 06:32:45;;;;;;;5.70;3.10;;;;;;;14.12;56.45;99230.13;5112029;28;20528;-86
2022/05/12 06:35:12;;;;;;;3.03;2.63;;;;;;;14.13;56.65;99215.19;5111775;28;20130;-85
2022/05/12 06:37:38;;;;;;;5.07;2.58;;;;;;;14.09;56.62;99214.25;5112545;28;20078;-84
2022/05/12 06:40:05;;;;;;;6.68;3.10;;;;;;;14.17;56.30;99215.31;5114635;28;20071;-84
2022/05/12 06:42:31;;;;;;;4.63;2.65;;;;;;;14.32;56.68;99219.38;5111966;28;20662;-84
2022/05/12 06:44:59;;;;;;;5.28;2.80;;;;;;;14.47;56.29;99216.00;5109579;28;20054;-84
2022/05/12 06:47:25;;;;;;;4.00;2.55;;;;;;;14.45;55.37;99207.25;5104573;28;20489;-84
2022/05/12 06:49:51;;;;;;;6.70;2.60;;;;;;;14.43;55.66;99206.78;5103294;28;20067;-84
2022/05/12 06:52:18;;;;;;;4.40;2.83;;;;;;;14.44;55.51;99200.94;5112382;28;20047;-83
2022/05/12 06:54:44;;;;;;;6.00;2.50;;;;;;;14.53;56.26;99200.81;5110931;28;20174;-83
2022/05/12 06:57:10;;;;;;;4.50;2.50;;;;;;;14.67;55.17;99201.31;5110756;28;20039;-84
2022/05/12 06:59:37;;;;;;;9.07;3.53;;;;;;;14.69;54.82;99190.72;5094715;28;20097;-83
2022/05/12 07:02:04;;;;;;;6.38;2.63;;;;;;;14.75;54.93;99192.13;5083376;28;20437;-84
2022/05/12 07:04:31;;;;;;;6.70;3.00;;;;;;;14.86;55.10;99180.59;5105219;28;20386;-85
2022/05/12 07:06:57;;;;;;;6.57;2.80;;;;;;;14.91;54.81;99192.22;5093452;28;20486;-86
2022/05/12 07:09:24;;;;;;;6.25;2.85;;;;;;;15.02;53.94;99185.09;5111434;28;20055;-85
2022/05/12 07:11:50;;;;;;;3.85;2.47;;;;;;;15.26;54.08;99177.91;5110033;28;20035;-85
2022/05/12 07:14:17;;;;;;;3.50;2.33;;;;;;;15.46;52.64;99181.72;5093306;28;20043;-84
2022/05/12 07:16:44;;;;;;;7.88;2.92;;;;;;;15.69;52.86;99182.81;5110091;28;20034;-84
2022/05/12 07:19:11;;;;;;;4.57;2.28;;;;;;;15.89;52.17;99178.25;5096735;28;20051;-84
2022/05/12 07:27:06;;;;;;;6.55;2.85;;;;;;;16.58;51.06;99171.41;5103827;28;20043;-84
2022/05/12 07:29:34;;;;;;;4.70;2.22;;;;;;;16.85;50.04;99169.75;5109733;28;20062;-84
2022/05/12 07:32:00;;;;;;;7.85;2.33;;;;;;;16.84;50.08;99168.13;5111427;28;20416;-84
2022/05/12 07:34:26;;;;;;;3.97;2.17;;;;;;;16.83;50.21;99169.28;5111421;28;20118;-83
2022/05/12 07:36:52;;;;;;;4.07;2.17;;;;;;;16.96;48.96;99158.91;5110077;28;20049;-84
2022/05/12 07:39:22;;;;;;;2.90;1.58;;;;;;;16.96;48.46;99159.69;5110274;28;20132;-83
2022/05/12 07:41:48;;;;;;;3.20;1.60;;;;;;;16.72;48.89;99155.19;5109699;28;20042;-83
2022/05/12 07:44:17;;;;;;;4.75;2.03;;;;;;;16.65;49.60;99159.69;5110250;28;20031;-83
2022/05/12 07:46:42;;;;;;;;;;;;;;;16.56;49.53;99168.19;5081491;28;20040;-83
2022/05/12 07:49:08;;;;;;;3.90;1.70;;;;;;;16.45;49.71;99151.28;5089911;28;19927;-83
2022/05/12 07:51:33;;;;;;;4.80;1.70;;;;;;;16.44;49.91;99144.16;5072734;28;20042;-83
2022/05/12 07:53:59;;;;;;;3.35;1.85;;;;;;;16.44;50.23;99148.88;5089525;28;20039;-83
2022/05/12 07:56:26;;;;;;;4.70;2.03;;;;;;;16.59;50.20;99146.13;5090548;28;20036;-83
2022/05/12 07:58:53;;;;;;;4.22;1.77;;;;;;;16.77;49.59;99146.59;5072990;28;20044;-83
2022/05/12 08:01:20;;;;;;;3.45;1.48;;;;;;;16.84;49.69;99132.94;5093557;28;20032;-84
2022/05/12 08:03:46;;;;;;;3.05;1.50;;;;;;;17.21;49.05;99134.56;5089283;28;20521;-82
2022/05/12 08:06:14;;;;;;;2.45;1.83;;;;;;;17.58;47.97;99127.44;5089436;28;20044;-82
2022/05/12 08:08:41;;;;;;;3.00;1.40;;;;;;;17.70;48.12;99124.56;5090432;28;20521;-83
2022/05/12 08:11:07;;;;;;;4.60;1.67;;;;;;;17.81;47.69;99123.94;5090458;28;20521;-83
2022/05/12 08:13:33;;;;;;;3.30;1.50;;;;;;;17.78;47.34;99126.28;5090247;28;20043;-83
2022/05/12 08:15:59;;;;;;;3.03;1.70;;;;;;;17.67;46.72;99125.22;5110881;28;20040;-83
2022/05/12 08:18:28;;;;;;;7.07;1.73;;;;;;;17.39;46.95;99119.91;5092597;28;20126;-82
2022/05/12 08:20:54;;;;;;;2.78;1.38;;;;;;;17.22;47.18;99106.47;5114198;27;20121;-83
2022/05/12 08:23:20;;;;;;;4.13;1.70;;;;;;;17.14;47.56;99111.03;5113487;28;20061;-82
2022/05/12 08:25:46;;;;;;;4.32;1.60;;;;;;;17.06;47.82;99100.97;5111557;28;20323;-82
2022/05/12 08:28:13;;;;;;;2.15;1.45;;;;;;;16.94;48.04;99095.53;5114343;28;20048;-82
2022/05/12 08:30:39;;;;;;;3.00;1.48;;;;;;;16.92;48.45;99105.38;5113278;28;20035;-82
2022/05/12 08:33:05;;;;;;;2.33;1.38;;;;;;;16.78;48.17;99109.41;5113074;28;20039;-82
2022/05/12 08:35:30;;;;;;;5.50;1.73;;;;;;;16.64;48.53;99103.50;5113027;28;20044;-83
2022/05/12 08:37:56;;;;;;;2.05;1.45;;;;;;;16.46;48.75;99092.00;5114605;28;20035;-83
2022/05/12 08:40:32;;;;;;;7.93;1.80;;;;;;;16.26;48.49;99087.53;5098500;28;20036;-82
2022/05/12 08:43:30;;;;;;;4.18;1.55;;;;;;;16.15;48.37;99080.94;5093239;28;20122;-81
2022/05/12 08:46:04;;;;;;;4.00;1.90;;;;;;;16.06;48.50;99070.03;5071867;28;20048;-82
2022/05/12 08:48:30;;;;;;;6.95;2.35;;;;;;;15.90;48.01;99071.97;5093648;28;20039;-81
2022/05/12 08:50:56;;;;;;;2.53;1.33;;;;;;;15.73;48.37;99075.88;5093623;28;20043;-81
2022/05/12 08:53:25;;;;;;;3.55;1.23;;;;;;;15.65;49.28;99074.06;5093123;28;20043;-81
2022/05/12 08:55:53;;;;;;;5.20;1.70;;;;;;;15.64;49.21;99066.94;5109466;28;20122;-80
2022/05/12 08:58:26;;;;;;;3.80;1.40;;;;;;;15.64;49.94;99056.69;5097022;28;20038;-79
2022/05/12 09:00:54;;;;;;;3.65;1.58;;;;;;;15.72;50.25;99045.81;5092911;28;20036;-80
2022/05/12 09:03:28;;;;;;;1.50;1.20;;;;;;;15.70;50.51;99051.69;5113961;28;20062;-81
2022/05/12 09:06:01;;;;;;;2.35;1.17;;;;;;;15.71;50.04;99038.66;5112250;28;20043;-83
2022/05/12 09:08:38;;;;;;;2.50;1.35;;;;;;;15.66;50.28;99032.25;5112460;28;20032;-80
2022/05/12 09:11:12;;;;;;;4.63;1.90;;;;;;;15.62;50.49;99019.47;5112560;28;20039;-80
2022/05/12 09:13:45;;;;;;;2.50;1.75;;;;;;;15.68;50.59;99018.06;5113661;28;20508;-79
2022/05/12 09:16:28;;;;;;;3.88;1.50;;;;;;;15.70;51.13;99001.91;5106585;28;20080;-81
2022/05/12 09:18:54;;;;;;;2.33;1.33;;;;;;;15.80;50.20;98997.81;5091899;28;20040;-79
2022/05/12 09:21:27;;;;;;;1.55;1.30;;;;;;;15.84;49.94;98993.97;5103234;28;20444;-80
2022/05/12 09:23:53;;;;;;;2.45;1.15;;;;;;;15.81;49.63;98991.13;5113404;28;20122;-78
2022/05/12 09:26:37;;;;;;;2.25;1.10;;;;;;;15.92;48.52;98981.94;5111748;28;20413;-73
2022/05/12 09:29:23;;;;;;;2.50;1.30;;;;;;;15.98;47.85;98979.72;5113306;28;20055;-74
2022/05/12 09:31:55;;;;;;;4.80;1.10;;;;;;;16.09;47.41;98982.72;5109978;28;20120;-74
2022/05/12 09:34:31;;;;;;;2.70;1.23;;;;;;;16.06;46.87;98978.72;5106986;27;20499;-73
2022/05/12 09:37:15;;;;;;;1.80;1.00;;;;;;;16.07;46.79;98965.69;5104035;27;20054;-73
2022/05/12 09:39:48;;;;;;;1.60;1.17;;;;;;;16.11;46.97;98964.59;5118767;27;20035;-73
2022/05/12 09:42:35;;;;;;;2.80;1.27;;;;;;;16.14;46.74;98957.53;5120387;27;20119;-73
2022/05/12 09:45:19;;;;;;;2.53;1.20;;;;;;;16.19;46.97;98954.53;5113095;28;20031;-74
2022/05/12 09:47:45;;;;;;;1.75;1.10;;;;;;;16.24;47.66;98943.97;5092185;28;20059;-74
2022/05/12 09:50:28;;;;;;;1.80;1.55;;;;;;;16.22;47.55;98940.75;5101545;28;20042;-74
2022/05/12 09:52:54;;;;;;;4.22;1.55;;;;;;;16.19;47.40;98937.91;5112401;28;20040;-73
2022/05/12 09:55:20;;;;;;;1.73;1.30;;;;;;;16.11;47.33;98944.44;5093347;28;20036;-72
2022/05/12 09:57:55;;;;;;;2.95;1.40;;;;;;;16.11;47.31;98942.47;5092610;28;20050;-74
2022/05/12 10:00:32;;;;;;;2.03;1.17;;;;;;;16.08;47.23;98936.84;5091565;28;20101;-74
2022/05/12 10:09:04;;;;;;;5.07;3.45;;;;;;;16.00;46.82;98932.31;5099011;28;20555;-74
2022/05/12 10:12:16;;;;;;;3.83;1.40;;;;;;;15.98;47.24;98922.41;5110598;28;20046;-74
2022/05/12 10:15:00;;;;;;;4.63;1.48;;;;;;;15.95;47.01;98923.13;5083300;28;20096;-74
2022/05/12 10:17:29;;;;;;;2.83;1.55;;;;;;;15.85;47.53;98911.81;5109872;28;20047;-75
2022/05/12 10:19:55;;;;;;;2.63;1.38;;;;;;;15.78;47.63;98908.84;5103591;28;20494;-75
2022/05/12 10:22:32;;;;;;;2.28;1.60;;;;;;;15.74;47.36;98906.00;5090918;28;20430;-76
2022/05/12 10:25:17;;;;;;;3.55;1.10;;;;;;;15.66;48.20;98907.81;5098376;28;20036;-74
2022/05/12 10:27:51;;;;;;;4.38;1.55;;;;;;;15.61;48.57;98910.00;5092425;28;20502;-74
2022/05/12 10:30:45;;;;;;;6.03;1.80;;;;;;;15.54;47.87;98891.28;5096897;28;20130;-74
2022/05/12 10:33:16;;;;;;;5.25;1.27;;;;;;;15.55;48.00;98886.53;5114804;27;20065;-74
2022/05/12 10:35:53;;;;;;;5.65;1.55;;;;;;;15.49;48.35;98888.78;5115261;27;20101;-73
2022/05/12 10:38:27;;;;;;;2.97;1.50;;;;;;;15.47;48.52;98876.47;5112940;27;20509;-74
2022/05/12 10:41:02;;;;;;;2.83;1.40;;;;;;;15.41;49.09;98869.59;5109769;27;20039;-74
2022/05/12 10:43:47;;;;;;;4.93;1.60;;;;;;;15.46;48.33;98863.81;5114135;27;20038;-74
2022/05/12 10:46:15;;;;;;;5.60;1.52;;;;;;;15.46;48.54;98855.53;5104408;27;20549;-75
2022/05/12 10:48:58;;;;;;;3.00;1.75;;;;;;;15.44;49.05;98857.81;5091798;28;20075;-75
2022/05/12 10:51:26;;;;;;;6.10;1.80;;;;;;;15.44;48.58;98855.06;5093062;28;20044;-74
2022/05/12 10:54:17;;;;;;;2.45;1.45;;;;;;;15.44;48.63;98844.00;5092985;28;20123;-74
2022/05/12 10:57:19;;;;;;;5.60;1.77;;;;;;;15.37;49.06;98841.88;5102728;28;20040;-75
2022/05/12 10:59:55;;;;;;;3.13;1.73;;;;;;;15.36;48.77;98834.75;5096835;28;20032;-75
2022/05/12 11:02:39;;;;;;;3.03;1.60;;;;;;;15.34;49.06;98829.56;5100026;28;20410;-75
2022/05/12 11:05:38;;;;;;;3.22;1.67;;;;;;;15.33;49.04;98836.25;5091563;28;20387;-74
2022/05/12 11:08:04;;;;;;;5.35;1.60;;;;;;;15.24;48.83;98832.84;5094435;28;20509;-75
2022/05/12 11:10:41;;;;;;;4.03;1.83;;;;;;;15.28;48.93;98833.78;5110594;28;20080;-75
2022/05/12 11:13:15;;;;;;;3.70;1.92;;;;;;;15.26;48.95;98829.72;5109380;28;20119;-75
2022/05/12 11:15:48;;;;;;;4.95;1.75;;;;;;;15.16;49.85;98825.56;5109975;28;20039;-75
2022/05/12 11:18:24;;;;;;;5.43;1.50;;;;;;;15.06;50.46;98824.13;5097998;28;20043;-74
2022/05/12 11:21:02;;;;;;;2.80;1.90;;;;;;;14.98;51.89;98822.34;5095857;28;20055;-76
2022/05/12 11:23:42;;;;;;;5.53;1.53;;;;;;;14.92;52.14;98823.72;5106314;28;20512;-76
2022/05/12 11:26:17;;;;;;;5.68;1.90;;;;;;;14.84;53.52;98823.91;5097275;28;20039;-76
2022/05/12 11:32:16;;;;;;;5.47;1.90;;;;;;;14.52;55.67;98836.84;5111041;28;20046;-74
2022/05/12 11:34:46;;;;;;;3.90;1.70;;;;;;;14.39;57.28;98825.78;5109959;28;20448;-73
2022/05/12 11:37:37;;;;;;;4.07;1.95;;;;;;;14.19;58.46;98830.34;5108223;28;20131;-74
2022/05/12 11:40:08;;;;;;;7.38;2.58;;;;;;;14.04;59.93;98822.81;5090918;28;20078;-74
2022/05/12 11:45:42;;;;;;;4.43;1.95;;;;;;;13.64;62.79;98832.97;5099479;28;20039;-74
2022/05/12 11:48:36;;;;;;;5.00;2.17;;;;;;;13.48;62.74;98832.88;5100470;28;20040;-73
2022/05/12 11:51:13;;;;;;;6.03;2.50;;;;;;;13.33;64.05;98839.84;5100669;28;20036;-73
2022/05/12 11:53:53;;;;;;;4.63;2.42;;;;;;;13.21;65.44;98843.41;5090721;28;20134;-74
2022/05/12 11:56:49;;;;;;;6.53;3.33;;;;;;;13.10;66.17;98855.19;5102818;28;20039;-74
2022/05/12 11:59:34;;;;;;;5.18;3.10;;;;;;;13.02;67.20;98864.34;5100441;28;20035;-74
2022/05/12 12:02:05;;;;;;;5.97;2.50;;;;;;;12.89;68.65;98860.75;5099489;28;20146;-74
2022/05/12 12:04:37;;;;;;;5.22;2.63;;;;;;;12.72;68.74;98858.97;5104349;28;20525;-75
2022/05/12 12:07:05;;;;;;;3.67;2.13;;;;;;;12.58;70.10;98859.25;5100994;28;20078;-73